createdAt,value
2019-05-11T00:02:14.901Z,92.90
2019-05-11T00:04:43.057Z,92.90
2019-05-11T00:07:10.998Z,92.70
2019-05-11T00:09:38.864Z,92.60
2019-05-11T00:12:06.861Z,92.00
2019-05-11T00:14:34.851Z,91.70
2019-05-11T00:17:04.181Z,91.40
2019-05-11T00:19:51.481Z,91.00
2019-05-11T00:22:19.468Z,90.70
2019-05-11T00:24:47.350Z,90.30
2019-05-11T00:27:15.232Z,90.10
2019-05-11T00:29:43.179Z,89.80
2019-05-11T00:32:11.002Z,89.50
2019-05-11T00:34:38.944Z,89.30
2019-05-11T00:37:06.833Z,89.20
2019-05-11T00:39:34.626Z,89.00
2019-05-11T00:42:02.529Z,89.50
2019-05-11T00:44:30.259Z,88.80
2019-05-11T00:46:58.249Z,88.10
2019-05-11T00:49:28.442Z,88.10
2019-05-11T00:51:56.663Z,88.00
2019-05-11T00:54:24.574Z,87.70
2019-05-11T00:56:52.326Z,87.50
2019-05-11T00:59:22.235Z,88.00
2019-05-11T01:01:51.425Z,88.10
2019-05-11T01:04:19.334Z,88.00
2019-05-11T01:06:47.120Z,88.70
2019-05-11T01:09:14.976Z,88.50
2019-05-11T01:11:42.753Z,88.30
2019-05-11T01:14:10.481Z,88.20
2019-05-11T01:16:38.252Z,88.10
2019-05-11T01:19:05.982Z,88.30
2019-05-11T01:21:33.587Z,87.60
2019-05-11T01:24:01.494Z,86.30
2019-05-11T01:26:29.335Z,85.40
2019-05-11T01:28:57.210Z,84.20
2019-05-11T01:31:25.201Z,83.90
2019-05-11T01:33:53.095Z,84.20
2019-05-11T01:36:21.033Z,84.40
2019-05-11T01:38:48.890Z,85.20
2019-05-11T01:41:16.881Z,85.60
2019-05-11T01:43:44.794Z,85.60
2019-05-11T01:46:12.658Z,85.50
2019-05-11T01:48:40.964Z,85.50
2019-05-11T01:51:08.920Z,85.40
2019-05-11T01:53:36.766Z,85.30
2019-05-11T01:56:04.741Z,85.20
2019-05-11T01:58:32.636Z,85.30
2019-05-11T02:01:00.780Z,85.00
2019-05-11T02:03:28.900Z,85.30
2019-05-11T02:05:59.211Z,85.60
2019-05-11T02:08:27.447Z,81.90
2019-05-11T02:10:55.333Z,80.60
2019-05-11T02:13:23.124Z,79.90
2019-05-11T02:15:50.957Z,79.60
2019-05-11T02:18:19.070Z,79.40
2019-05-11T02:20:49.631Z,78.80
2019-05-11T02:23:17.474Z,78.20
2019-05-11T02:25:46.008Z,77.70
2019-05-11T02:28:13.788Z,77.70
2019-05-11T02:30:41.643Z,77.20
2019-05-11T02:33:10.017Z,76.90
2019-05-11T02:35:37.890Z,76.80
2019-05-11T02:38:05.690Z,77.20
2019-05-11T02:40:33.905Z,77.50
2019-05-11T02:43:01.628Z,78.10
2019-05-11T02:45:38.020Z,78.90
2019-05-11T02:48:05.974Z,79.00
2019-05-11T02:50:35.722Z,78.80
2019-05-11T02:53:04.530Z,79.20
2019-05-11T02:55:36.251Z,79.80
2019-05-11T02:58:05.120Z,79.70
2019-05-11T03:00:52.662Z,79.10
2019-05-11T03:03:20.461Z,78.80
2019-05-11T03:05:48.345Z,78.60
2019-05-11T03:08:16.160Z,78.90
2019-05-11T03:10:43.970Z,78.80
2019-05-11T03:13:11.781Z,79.10
2019-05-11T03:15:39.596Z,79.10
2019-05-11T03:18:09.331Z,79.50
2019-05-11T03:20:37.279Z,79.30
2019-05-11T03:23:05.609Z,79.50
2019-05-11T03:25:33.309Z,79.40
2019-05-11T03:28:01.461Z,79.80
2019-05-11T03:30:29.382Z,79.60
2019-05-11T03:32:57.670Z,79.10
2019-05-11T03:35:27.028Z,79.70
2019-05-11T03:37:54.828Z,79.30
2019-05-11T03:40:23.151Z,79.30
2019-05-11T03:43:01.941Z,79.20
2019-05-11T03:45:24.081Z,79.20
2019-05-11T03:47:53.340Z,79.00
2019-05-11T03:50:21.209Z,79.00
2019-05-11T03:52:59.443Z,78.20
2019-05-11T03:55:35.286Z,77.80
2019-05-11T03:58:14.136Z,77.70
2019-05-11T04:00:43.349Z,77.60
2019-05-11T04:03:11.466Z,77.10
2019-05-11T04:05:41.287Z,77.00
2019-05-11T04:08:09.147Z,77.10
2019-05-11T04:10:37.105Z,77.30
2019-05-11T04:13:04.701Z,77.70
2019-05-11T04:15:32.813Z,77.50
2019-05-11T04:18:00.537Z,77.70
2019-05-11T04:20:28.174Z,77.80
2019-05-11T04:22:56.688Z,77.80
2019-05-11T04:25:24.532Z,77.80
2019-05-11T04:27:53.529Z,77.90
2019-05-11T04:30:25.699Z,78.50
2019-05-11T04:32:54.026Z,78.30
2019-05-11T04:35:21.796Z,78.00
2019-05-11T04:37:49.538Z,77.90
2019-05-11T04:40:21.955Z,77.40
2019-05-11T04:42:55.752Z,75.50
2019-05-11T04:45:29.086Z,75.70
2019-05-11T04:47:56.493Z,75.60
2019-05-11T04:50:24.127Z,74.90
2019-05-11T04:52:52.302Z,74.00
2019-05-11T04:55:20.174Z,73.10
2019-05-11T04:57:48.017Z,73.50
2019-05-11T05:00:17.487Z,72.80
2019-05-11T05:02:46.771Z,72.40
2019-05-11T05:05:14.595Z,71.70
2019-05-11T05:07:48.646Z,72.10
2019-05-11T05:10:19.600Z,71.90
2019-05-11T05:12:50.375Z,71.80
2019-05-11T05:15:15.536Z,70.70
2019-05-11T05:17:43.848Z,70.90
2019-05-11T05:20:11.598Z,70.10
2019-05-11T05:22:39.314Z,69.80
2019-05-11T05:25:20.993Z,69.60
2019-05-11T05:27:48.955Z,69.60
2019-05-11T05:30:16.828Z,69.80
2019-05-11T05:32:44.664Z,69.00
2019-05-11T05:35:26.206Z,68.70
2019-05-11T05:37:54.028Z,67.60
2019-05-11T05:40:21.935Z,66.80
2019-05-11T05:42:49.795Z,67.30
2019-05-11T05:45:17.548Z,67.40
2019-05-11T05:47:45.357Z,67.70
2019-05-11T05:50:17.624Z,67.50
2019-05-11T05:52:45.550Z,67.50
2019-05-11T05:55:13.241Z,67.70
2019-05-11T05:57:41.156Z,67.50
2019-05-11T06:00:11.323Z,68.10
2019-05-11T06:02:39.376Z,68.60
2019-05-11T06:05:08.159Z,68.50
2019-05-11T06:07:36.069Z,68.20
2019-05-11T06:10:04.730Z,67.90
2019-05-11T06:12:32.431Z,68.30
2019-05-11T06:15:10.881Z,68.60
2019-05-11T06:17:38.641Z,68.40
2019-05-11T06:20:07.533Z,69.20
2019-05-11T06:22:35.632Z,69.50
2019-05-11T06:25:03.559Z,70.10
2019-05-11T06:27:31.301Z,70.10
2019-05-11T06:29:58.903Z,69.90
2019-05-11T06:32:27.088Z,70.60
2019-05-11T06:34:54.785Z,71.10
2019-05-11T06:37:22.549Z,71.00
2019-05-11T06:39:51.353Z,70.40
2019-05-11T06:42:19.077Z,70.70
2019-05-11T06:44:46.788Z,69.90
2019-05-11T06:47:14.512Z,68.70
2019-05-11T06:49:45.238Z,69.20
2019-05-11T06:52:12.991Z,69.10
2019-05-11T06:54:40.694Z,68.90
2019-05-11T06:57:08.433Z,68.00
2019-05-11T06:59:36.043Z,66.00
2019-05-11T07:02:03.725Z,66.50
2019-05-11T07:04:31.426Z,66.20
2019-05-11T07:06:59.119Z,65.50
2019-05-11T07:09:26.808Z,65.50
2019-05-11T07:11:54.841Z,65.50
2019-05-11T07:14:22.662Z,65.60
2019-05-11T07:16:50.241Z,65.00
2019-05-11T07:19:17.963Z,64.70
2019-05-11T07:21:45.612Z,63.80
2019-05-11T07:24:13.313Z,63.50
2019-05-11T07:26:41.152Z,64.30
2019-05-11T07:29:08.796Z,63.60
2019-05-11T07:31:36.745Z,63.70
2019-05-11T07:34:04.580Z,63.60
2019-05-11T07:36:32.244Z,63.20
2019-05-11T07:38:59.887Z,63.20
2019-05-11T07:41:28.089Z,62.40
2019-05-11T07:43:56.093Z,62.50
2019-05-11T07:46:23.853Z,61.70
2019-05-11T07:48:51.670Z,60.60
2019-05-11T07:51:19.249Z,59.40
2019-05-11T07:53:48.626Z,59.70
2019-05-11T07:56:18.531Z,59.30
2019-05-11T07:58:47.866Z,58.90
2019-05-11T08:01:15.113Z,57.70
2019-05-11T08:03:43.845Z,57.30
2019-05-11T08:06:11.441Z,56.80
2019-05-11T08:08:39.047Z,58.10
2019-05-11T08:11:08.102Z,58.50
2019-05-11T08:13:36.042Z,58.60
2019-05-11T08:16:03.993Z,58.50
2019-05-11T08:18:31.662Z,58.30
2019-05-11T08:20:59.222Z,58.20
2019-05-11T08:23:28.569Z,58.20
2019-05-11T08:25:58.112Z,57.60
2019-05-11T08:28:25.977Z,58.20
2019-05-11T08:30:53.746Z,57.40
2019-05-11T08:33:21.443Z,57.40
2019-05-11T08:35:49.061Z,57.50
2019-05-11T08:38:18.057Z,58.70
2019-05-11T08:40:47.886Z,58.20
2019-05-11T08:43:17.790Z,57.70
2019-05-11T08:45:45.210Z,57.60
2019-05-11T08:48:12.837Z,56.70
2019-05-11T08:50:40.801Z,56.40
2019-05-11T08:53:08.738Z,56.40
2019-05-11T08:55:38.165Z,56.80
2019-05-11T08:58:07.927Z,57.40
2019-05-11T09:00:35.581Z,58.00
2019-05-11T09:03:03.192Z,58.30
2019-05-11T09:05:30.993Z,58.00
2019-05-11T09:07:58.875Z,57.90
2019-05-11T09:10:28.065Z,58.20
2019-05-11T09:12:56.321Z,57.70
2019-05-11T09:15:33.719Z,57.60
2019-05-11T09:17:54.096Z,56.20
2019-05-11T09:20:21.826Z,54.80
2019-05-11T09:22:49.533Z,54.00
2019-05-11T09:25:18.238Z,54.80
2019-05-11T09:27:48.211Z,54.80
2019-05-11T09:30:18.379Z,54.80
2019-05-11T09:32:47.763Z,55.20
2019-05-11T09:35:15.722Z,55.40
2019-05-11T09:37:43.536Z,55.50
2019-05-11T09:40:11.941Z,55.10
2019-05-11T09:42:39.599Z,55.00
2019-05-11T09:45:08.119Z,55.50
2019-05-11T09:47:38.411Z,55.90
2019-05-11T09:50:05.581Z,55.40
2019-05-11T09:52:33.210Z,53.00
2019-05-11T09:55:00.975Z,53.40
2019-05-11T09:57:28.663Z,54.40
2019-05-11T09:59:58.216Z,54.00
2019-05-11T10:02:27.941Z,53.70
2019-05-11T10:04:57.756Z,52.40
2019-05-11T10:07:25.411Z,52.50
2019-05-11T10:09:53.138Z,52.60
2019-05-11T10:12:20.906Z,52.40
2019-05-11T10:14:48.703Z,53.60
2019-05-11T10:17:18.191Z,54.20
2019-05-11T10:19:47.492Z,54.50
2019-05-11T10:22:15.272Z,54.60
2019-05-11T10:24:42.987Z,54.70
2019-05-11T10:27:10.745Z,55.00
2019-05-11T10:29:38.461Z,54.60
2019-05-11T10:32:07.974Z,54.50
2019-05-11T10:34:38.663Z,53.60
2019-05-11T10:37:08.382Z,52.70
2019-05-11T10:39:38.167Z,53.10
2019-05-11T10:42:05.343Z,53.50
2019-05-11T10:44:33.082Z,53.80
2019-05-11T10:47:00.730Z,53.80
2019-05-11T10:49:29.032Z,54.50
2019-05-11T10:51:58.668Z,54.30
2019-05-11T10:54:28.725Z,54.30
2019-05-11T10:56:57.823Z,54.60
2019-05-11T10:59:27.943Z,54.60
2019-05-11T11:01:55.246Z,54.50
2019-05-11T11:04:38.006Z,54.40
2019-05-11T11:07:07.608Z,54.10
2019-05-11T11:09:35.454Z,54.90
2019-05-11T11:12:03.308Z,54.70
2019-05-11T11:14:31.139Z,53.40
2019-05-11T11:16:58.928Z,50.70
2019-05-11T11:19:31.391Z,51.00
2019-05-11T11:22:17.709Z,51.10
2019-05-11T11:24:28.822Z,51.30
2019-05-11T11:26:57.604Z,51.60
2019-05-11T11:29:25.587Z,51.00
2019-05-11T11:31:53.245Z,50.20
2019-05-11T11:34:21.080Z,50.00
2019-05-11T11:36:48.717Z,47.90
2019-05-11T11:39:18.560Z,47.60
2019-05-11T11:41:48.554Z,47.20
2019-05-11T11:44:18.494Z,47.80
2019-05-11T11:46:54.605Z,48.50
2019-05-11T11:49:18.827Z,49.90
2019-05-11T11:51:48.429Z,50.30
2019-05-11T11:54:18.187Z,49.40
2019-05-11T11:56:48.330Z,48.50
2019-05-11T11:59:15.208Z,49.20
2019-05-11T12:01:42.939Z,48.50
2019-05-11T12:04:10.744Z,47.00
2019-05-11T12:06:38.737Z,48.30
2019-05-11T12:09:08.761Z,48.60
2019-05-11T12:11:38.083Z,47.90
2019-05-11T12:14:05.923Z,48.10
2019-05-11T12:16:33.548Z,48.70
2019-05-11T12:19:01.208Z,48.50
2019-05-11T12:21:28.846Z,48.60
2019-05-11T12:23:58.458Z,48.70
2019-05-11T12:26:28.058Z,48.30
2019-05-11T12:28:57.572Z,46.80
2019-05-11T12:31:25.272Z,47.40
2019-05-11T12:33:53.180Z,45.70
2019-05-11T12:36:21.128Z,44.80
2019-05-11T12:38:49.047Z,45.00
2019-05-11T12:41:18.925Z,45.10
2019-05-11T12:43:46.209Z,43.60
2019-05-11T12:46:15.765Z,44.40
2019-05-11T12:48:44.305Z,45.00
2019-05-11T12:51:11.853Z,42.20
2019-05-11T12:53:39.485Z,38.60
2019-05-11T12:56:08.216Z,37.50
2019-05-11T12:58:36.351Z,38.30
2019-05-11T13:01:04.082Z,38.70
2019-05-11T13:03:31.753Z,38.90
2019-05-11T13:05:59.565Z,38.80
2019-05-11T13:08:27.839Z,37.20
2019-05-11T13:10:55.730Z,36.80
2019-05-11T13:13:23.611Z,37.10
2019-05-11T13:15:51.416Z,37.00
2019-05-11T13:18:19.224Z,37.70
2019-05-11T13:20:48.269Z,37.10
2019-05-11T13:23:18.338Z,38.20
2019-05-11T13:25:45.403Z,39.40
2019-05-11T13:28:13.226Z,38.20
2019-05-11T13:30:40.997Z,34.80
2019-05-11T13:33:08.815Z,35.00
2019-05-11T13:35:37.639Z,35.40
2019-05-11T13:38:05.404Z,36.50
2019-05-11T13:40:33.029Z,37.10
2019-05-11T13:43:00.812Z,36.90
2019-05-11T13:45:28.811Z,37.60
2019-05-11T13:47:59.189Z,37.30
2019-05-11T13:50:29.782Z,37.10
2019-05-11T13:52:58.435Z,36.70
2019-05-11T13:55:28.246Z,36.50
2019-05-11T13:57:57.699Z,35.00
2019-05-11T14:00:24.904Z,33.00
2019-05-11T14:02:58.443Z,33.30
2019-05-11T14:05:28.480Z,31.10
2019-05-11T14:07:58.705Z,31.40
2019-05-11T14:10:34.332Z,31.50
2019-05-11T14:13:02.306Z,31.50
2019-05-11T14:15:38.311Z,31.60
2019-05-11T14:18:09.335Z,31.80
2019-05-11T14:20:37.731Z,32.00
2019-05-11T14:23:05.106Z,32.20
2019-05-11T14:25:32.728Z,31.10
2019-05-11T14:28:00.631Z,31.20
2019-05-11T14:30:31.492Z,31.60
2019-05-11T14:32:59.152Z,31.50
2019-05-11T14:35:27.998Z,31.50
2019-05-11T14:37:58.799Z,31.30
2019-05-11T14:40:28.152Z,30.20
2019-05-11T14:42:57.982Z,30.00
2019-05-11T14:45:25.442Z,29.90
2019-05-11T14:47:53.037Z,29.70
2019-05-11T14:50:23.946Z,29.20
2019-05-11T14:52:51.459Z,29.20
2019-05-11T14:55:19.167Z,29.10
2019-05-11T14:57:48.576Z,29.00
2019-05-11T15:00:18.553Z,29.00
2019-05-11T15:02:48.610Z,29.30
2019-05-11T15:05:18.198Z,29.80
2019-05-11T15:07:47.878Z,29.70
2019-05-11T15:10:18.518Z,29.50
2019-05-11T15:12:45.920Z,29.50
2019-05-11T15:15:15.335Z,29.60
2019-05-11T15:17:42.973Z,29.00
2019-05-11T15:20:12.642Z,29.50
2019-05-11T15:22:40.497Z,29.60
2019-05-11T15:25:12.746Z,29.90
2019-05-11T15:27:40.434Z,29.40
2019-05-11T15:30:08.813Z,29.80
2019-05-11T15:32:37.582Z,29.60
2019-05-11T15:35:08.097Z,29.00
2019-05-11T15:37:38.515Z,29.20
2019-05-11T15:40:19.942Z,28.90
2019-05-11T15:42:48.794Z,30.10
2019-05-11T15:45:18.824Z,30.50
2019-05-11T15:47:48.756Z,28.80
2019-05-11T15:50:18.975Z,28.60
2019-05-11T15:52:48.773Z,28.90
2019-05-11T15:55:18.846Z,29.90
2019-05-11T15:57:48.204Z,30.90
2019-05-11T16:00:16.754Z,32.10
2019-05-11T16:02:44.384Z,33.40
2019-05-11T16:05:12.190Z,34.50
2019-05-11T16:07:39.841Z,35.40
2019-05-11T16:10:08.768Z,36.40
2019-05-11T16:12:38.843Z,37.00
2019-05-11T16:15:08.793Z,37.90
2019-05-11T16:17:40.137Z,38.60
2019-05-11T16:20:08.747Z,39.30
2019-05-11T16:22:38.809Z,40.10
2019-05-11T16:25:09.161Z,39.80
2019-05-11T16:27:38.001Z,40.20
2019-05-11T16:30:10.868Z,39.60
2019-05-11T16:32:38.778Z,39.80
2019-05-11T16:35:08.800Z,40.20
2019-05-11T16:37:37.963Z,40.20
2019-05-11T16:40:06.323Z,40.00
2019-05-11T16:42:33.938Z,40.40
2019-05-11T16:45:02.156Z,40.60
2019-05-11T16:47:31.218Z,40.30
2019-05-11T16:49:58.995Z,41.00
2019-05-11T16:52:27.990Z,41.20
2019-05-11T16:55:08.264Z,41.10
2019-05-11T16:57:38.209Z,41.60
2019-05-11T17:00:12.939Z,41.60
2019-05-11T17:02:40.827Z,41.80
2019-05-11T17:05:09.005Z,41.60
2019-05-11T17:07:37.700Z,42.40
2019-05-11T17:10:09.492Z,42.50
2019-05-11T17:12:40.449Z,42.40
2019-05-11T17:15:08.899Z,42.90
2019-05-11T17:17:36.745Z,43.30
2019-05-11T17:20:07.766Z,43.10
2019-05-11T17:22:35.634Z,43.80
2019-05-11T17:25:04.095Z,43.60
2019-05-11T17:27:31.897Z,43.50
2019-05-11T17:30:09.426Z,44.00
2019-05-11T17:32:39.580Z,44.50
2019-05-11T17:35:08.438Z,44.80
2019-05-11T17:37:38.680Z,45.30
2019-05-11T17:40:09.037Z,45.50
2019-05-11T17:42:41.963Z,45.50
2019-05-11T17:45:23.170Z,45.30
2019-05-11T17:48:00.638Z,46.60
2019-05-11T17:50:38.157Z,46.30
2019-05-11T17:53:05.101Z,46.40
2019-05-11T17:55:45.113Z,46.50
2019-05-11T17:58:13.244Z,46.70
2019-05-11T18:00:47.911Z,46.50
2019-05-11T18:03:15.612Z,46.90
2019-05-11T18:05:48.558Z,47.20
2019-05-11T18:08:18.792Z,48.00
2019-05-11T18:11:00.223Z,48.60
2019-05-11T18:13:29.446Z,47.70
2019-05-11T18:15:57.901Z,48.40
2019-05-11T18:18:34.728Z,48.70
2019-05-11T18:21:02.756Z,48.20
2019-05-11T18:23:36.027Z,48.40
2019-05-11T18:26:04.198Z,48.70
2019-05-11T18:28:32.119Z,48.80
2019-05-11T18:31:00.089Z,49.60
2019-05-11T18:33:28.192Z,51.50
2019-05-11T18:35:59.294Z,50.70
2019-05-11T18:38:27.793Z,53.00
2019-05-11T18:40:58.011Z,53.00
2019-05-11T18:43:27.964Z,54.10
2019-05-11T18:46:12.937Z,54.80
2019-05-11T18:48:41.118Z,54.90
2019-05-11T18:51:09.300Z,54.80
2019-05-11T18:53:37.400Z,54.60
2019-05-11T18:56:05.510Z,55.30
2019-05-11T18:58:38.384Z,55.40
2019-05-11T19:01:21.361Z,56.30
2019-05-11T19:03:49.288Z,56.80
2019-05-11T19:06:18.361Z,58.10
2019-05-11T19:08:48.631Z,58.70
2019-05-11T19:11:18.244Z,59.10
2019-05-11T19:13:49.731Z,58.90
2019-05-11T19:16:18.692Z,59.90
2019-05-11T19:18:47.977Z,60.40
2019-05-11T19:21:17.819Z,60.40
2019-05-11T19:23:45.570Z,60.50
2019-05-11T19:26:13.416Z,60.80
2019-05-11T19:28:41.264Z,60.90
2019-05-11T19:31:11.196Z,61.00
2019-05-11T19:33:38.714Z,61.00
2019-05-11T19:36:07.919Z,61.10
2019-05-11T19:38:38.227Z,61.40
2019-05-11T19:41:08.371Z,61.60
2019-05-11T19:43:38.125Z,61.70
2019-05-11T19:46:09.752Z,62.00
2019-05-11T19:48:39.579Z,62.00
2019-05-11T19:51:11.563Z,62.20
2019-05-11T19:53:38.592Z,62.30
2019-05-11T19:56:07.773Z,62.40
2019-05-11T19:58:37.895Z,62.50
2019-05-11T20:01:08.489Z,62.60
2019-05-11T20:03:37.858Z,62.70
2019-05-11T20:06:08.564Z,62.80
2019-05-11T20:08:40.832Z,62.90
2019-05-11T20:11:09.573Z,63.10
2019-05-11T20:13:38.806Z,63.50
2019-05-11T20:16:08.279Z,63.60
2019-05-11T20:18:36.796Z,63.30
2019-05-11T20:21:18.545Z,63.20
2019-05-11T20:23:34.564Z,63.20
2019-05-11T20:26:02.962Z,63.50
2019-05-11T20:28:31.854Z,63.70
2019-05-11T20:30:59.858Z,63.60
2019-05-11T20:33:28.055Z,63.70
2019-05-11T20:35:58.124Z,63.90
2019-05-11T20:38:38.503Z,64.10
2019-05-11T20:41:08.350Z,64.00
2019-05-11T20:43:36.148Z,64.40
2019-05-11T20:46:04.040Z,64.40
2019-05-11T20:48:32.089Z,64.50
2019-05-11T20:51:03.584Z,64.70
2019-05-11T20:53:31.367Z,65.30
2019-05-11T20:55:59.274Z,65.10
2019-05-11T20:58:28.917Z,65.20
2019-05-11T21:00:56.812Z,65.20
2019-05-11T21:03:27.560Z,65.30
2019-05-11T21:05:55.040Z,65.90
2019-05-11T21:08:23.568Z,66.10
2019-05-11T21:10:51.521Z,66.30
2019-05-11T21:13:19.479Z,66.20
2019-05-11T21:15:48.012Z,66.80
2019-05-11T21:18:18.262Z,67.20
2019-05-11T21:20:48.176Z,67.40
2019-05-11T21:23:18.544Z,67.50
2019-05-11T21:25:46.540Z,68.00
2019-05-11T21:28:16.339Z,68.60
2019-05-11T21:30:48.127Z,68.80
2019-05-11T21:33:21.282Z,69.40
2019-05-11T21:35:50.226Z,69.50
2019-05-11T21:38:18.618Z,69.80
2019-05-11T21:40:48.456Z,70.10
2019-05-11T21:43:16.217Z,70.40
2019-05-11T21:45:44.011Z,71.70
2019-05-11T21:48:11.855Z,73.40
2019-05-11T21:50:39.872Z,73.20
2019-05-11T21:53:08.108Z,72.70
2019-05-11T21:55:37.817Z,72.70
2019-05-11T21:58:05.714Z,71.80
2019-05-11T22:00:34.201Z,71.20
2019-05-11T22:03:02.525Z,71.20
2019-05-11T22:05:30.535Z,71.30
2019-05-11T22:07:58.411Z,71.10
2019-05-11T22:10:28.344Z,71.70
2019-05-11T22:12:56.095Z,71.30
2019-05-11T22:15:24.354Z,71.80
2019-05-11T22:17:52.054Z,71.50
2019-05-11T22:20:22.351Z,71.20
2019-05-11T22:22:50.053Z,70.90
2019-05-11T22:25:18.449Z,70.40
2019-05-11T22:27:48.842Z,70.60
2019-05-11T22:30:18.555Z,70.80
2019-05-11T22:32:47.745Z,69.50
2019-05-11T22:35:18.058Z,68.80
2019-05-11T22:37:45.374Z,68.70
2019-05-11T22:40:13.351Z,68.60
2019-05-11T22:42:41.265Z,68.10
2019-05-11T22:45:09.830Z,68.40
2019-05-11T22:47:39.372Z,68.20
2019-05-11T22:50:07.992Z,67.80
2019-05-11T22:52:37.347Z,67.40
2019-05-11T22:55:11.135Z,66.80
2019-05-11T22:57:37.935Z,66.90
2019-05-11T23:00:08.168Z,66.10
2019-05-11T23:02:38.024Z,66.00
2019-05-11T23:05:08.181Z,65.90
2019-05-11T23:07:37.641Z,65.70
2019-05-11T23:10:05.376Z,65.50
2019-05-11T23:12:33.673Z,65.30
2019-05-11T23:15:12.415Z,65.40
2019-05-11T23:17:40.595Z,65.40
2019-05-11T23:20:09.690Z,65.30
2019-05-11T23:22:54.265Z,65.20
2019-05-11T23:25:18.433Z,65.30
2019-05-11T23:27:48.535Z,65.30
2019-05-11T23:30:19.629Z,65.30
2019-05-11T23:32:48.514Z,65.30
2019-05-11T23:35:18.746Z,65.20
2019-05-11T23:37:49.365Z,65.20
2019-05-11T23:40:18.263Z,65.40
2019-05-11T23:42:48.678Z,65.50
2019-05-11T23:45:18.529Z,65.50
2019-05-11T23:47:48.300Z,64.90
2019-05-11T23:50:15.716Z,64.70
2019-05-11T23:52:43.773Z,64.70
2019-05-11T23:55:13.339Z,64.70
2019-05-11T23:57:41.420Z,65.20
